createdAt,value
2018-12-17T00:05:16.145Z,14.27
2018-12-17T00:18:09.140Z,22.32
2018-12-17T00:35:39.818Z,13.37
2018-12-17T00:50:23.229Z,20.53
2018-12-17T00:53:12.219Z,17.27
2018-12-17T01:01:58.966Z,25.67
2018-12-17T01:04:46.634Z,14.83
2018-12-17T01:16:46.348Z,19.90
2018-12-17T01:25:13.991Z,24.07
2018-12-17T01:28:05.467Z,21.23
2018-12-17T01:30:43.771Z,19.87
2018-12-17T01:39:36.962Z,21.57
2018-12-17T01:42:28.451Z,28.33
2018-12-17T01:45:17.589Z,21.73
2018-12-17T01:53:55.312Z,27.03
2018-12-17T02:08:17.291Z,11.33
2018-12-17T02:10:52.093Z,1.33
2018-12-17T02:13:28.786Z,1.23
2018-12-17T02:19:18.609Z,1.53
2018-12-17T02:25:03.092Z,1.50
2018-12-17T02:27:48.295Z,0.80
2018-12-17T02:33:33.885Z,2.27
2018-12-17T02:42:07.491Z,3.27
2018-12-17T02:50:31.524Z,2.80
2018-12-17T02:53:06.813Z,0.60
2018-12-17T02:55:49.346Z,0.70
2018-12-17T02:58:24.322Z,0.60
2018-12-17T03:00:56.643Z,2.50
2018-12-17T03:03:43.414Z,1.30
2018-12-17T03:06:16.698Z,0.60
2018-12-17T03:14:40.836Z,1.77
2018-12-17T03:20:18.365Z,0.70
2018-12-17T03:25:52.779Z,0.70
2018-12-17T03:28:43.126Z,9.37
2018-12-17T03:31:17.125Z,1.00
2018-12-17T03:33:59.316Z,0.90
2018-12-17T03:36:33.801Z,0.80
2018-12-17T03:39:07.133Z,0.70
2018-12-17T03:44:36.233Z,0.60
2018-12-17T03:47:22.808Z,0.80
2018-12-17T03:50:02.362Z,0.60
2018-12-17T03:55:42.204Z,3.13
2018-12-17T03:58:16.485Z,0.60
2018-12-17T04:03:53.677Z,0.70
2018-12-17T04:06:32.857Z,0.80
2018-12-17T04:09:07.588Z,0.60
2018-12-17T04:11:45.470Z,0.60
2018-12-17T04:14:20.596Z,8.83
2018-12-17T04:17:01.131Z,0.60
2018-12-17T04:22:55.296Z,0.90
2018-12-17T04:25:53.576Z,0.70
2018-12-17T04:37:17.882Z,0.60
2018-12-17T04:39:52.156Z,2.30
2018-12-17T04:42:25.284Z,12.53
2018-12-17T04:44:57.102Z,21.73
2018-12-17T04:47:43.888Z,26.70
2018-12-17T04:50:33.963Z,16.60
2018-12-17T04:53:09.893Z,21.77
2018-12-17T04:55:50.748Z,21.93
2018-12-17T04:58:25.396Z,23.27
2018-12-17T05:07:19.216Z,19.37
2018-12-17T05:09:56.393Z,28.13
2018-12-17T05:12:33.142Z,27.63
2018-12-17T05:15:07.970Z,30.47
2018-12-17T05:17:42.179Z,27.30
2018-12-17T05:20:12.771Z,23.90
2018-12-17T05:22:46.352Z,20.23
2018-12-17T05:25:22.090Z,27.43
2018-12-17T05:27:51.471Z,29.73
2018-12-17T05:30:23.332Z,24.50
2018-12-17T05:33:02.813Z,20.83
2018-12-17T05:35:37.448Z,32.87
2018-12-17T05:38:19.498Z,31.60
2018-12-17T05:40:53.804Z,28.80
2018-12-17T05:43:27.160Z,21.70
2018-12-17T05:46:05.836Z,27.23
2018-12-17T05:48:38.980Z,20.77
2018-12-17T05:51:13.144Z,21.53
2018-12-17T05:53:55.082Z,16.80
2018-12-17T05:56:31.573Z,22.43
2018-12-17T05:59:12.612Z,28.97
2018-12-17T06:01:51.900Z,24.00
2018-12-17T06:07:18.581Z,35.33
2018-12-17T06:09:53.410Z,18.50
2018-12-17T06:12:33.766Z,24.27
2018-12-17T06:15:20.956Z,27.80
2018-12-17T06:18:03.029Z,25.13
2018-12-17T06:20:45.330Z,28.80
2018-12-17T06:23:24.923Z,24.70
2018-12-17T06:26:00.060Z,23.20
2018-12-17T06:31:30.714Z,27.50
2018-12-17T06:34:17.504Z,27.27
2018-12-17T06:37:08.724Z,24.07
2018-12-17T06:39:49.258Z,25.27
2018-12-17T06:42:25.713Z,20.43
2018-12-17T06:47:59.308Z,33.23
2018-12-17T06:50:38.936Z,26.40
2018-12-17T06:53:13.971Z,27.23
2018-12-17T06:55:51.335Z,23.07
2018-12-17T06:58:25.559Z,32.90
2018-12-17T07:01:04.247Z,28.33
2018-12-17T07:03:43.113Z,28.53
2018-12-17T07:06:23.612Z,25.43
2018-12-17T07:09:04.165Z,22.37
2018-12-17T07:11:39.552Z,21.03
2018-12-17T07:14:11.916Z,22.47
2018-12-17T07:16:50.588Z,23.40
2018-12-17T07:19:28.908Z,26.93
2018-12-17T07:22:15.162Z,15.80
2018-12-17T07:25:05.250Z,22.90
2018-12-17T07:30:59.290Z,24.57
2018-12-17T07:39:44.792Z,14.83
2018-12-17T07:42:30.604Z,22.47
2018-12-17T07:57:09.642Z,1.00
2018-12-17T08:02:44.554Z,1.23
2018-12-17T08:05:31.468Z,0.60
2018-12-17T08:08:14.222Z,0.60
2018-12-17T08:13:49.946Z,0.57
2018-12-17T08:16:38.346Z,2.07
2018-12-17T08:22:20.765Z,0.70
2018-12-17T08:24:59.176Z,0.60
2018-12-17T08:30:43.739Z,0.70
2018-12-17T08:33:24.823Z,0.60
2018-12-17T08:36:01.298Z,0.73
2018-12-17T08:38:36.586Z,0.60
2018-12-17T08:41:12.598Z,2.80
2018-12-17T08:44:03.189Z,5.23
2018-12-17T08:49:26.466Z,0.60
2018-12-17T08:52:05.908Z,0.60
2018-12-17T08:57:54.482Z,4.63
2018-12-17T09:00:47.261Z,0.70
2018-12-17T09:03:26.526Z,0.70
2018-12-17T09:12:04.513Z,12.93
2018-12-17T09:14:50.719Z,19.10
2018-12-17T09:17:26.276Z,21.60
2018-12-17T09:20:11.576Z,26.33
2018-12-17T09:28:54.046Z,32.97
2018-12-17T09:34:23.311Z,45.60
2018-12-17T09:43:05.972Z,18.10
2018-12-17T09:45:41.092Z,33.90
2018-12-17T09:48:18.138Z,24.77
2018-12-17T09:50:55.560Z,29.03
2018-12-17T09:53:32.174Z,28.80
2018-12-17T09:56:07.081Z,26.43
2018-12-17T09:58:47.822Z,22.23
2018-12-17T10:01:22.194Z,26.43
2018-12-17T10:04:09.622Z,18.40
2018-12-17T10:06:48.586Z,24.40
2018-12-17T10:12:26.823Z,30.03
2018-12-17T10:15:18.509Z,21.50
2018-12-17T10:17:57.116Z,32.50
2018-12-17T10:20:40.183Z,33.23
2018-12-17T10:23:13.152Z,25.40
2018-12-17T10:25:45.075Z,28.63
2018-12-17T10:28:21.707Z,24.73
2018-12-17T10:30:56.523Z,33.50
2018-12-17T10:33:39.501Z,34.50
2018-12-17T10:36:15.147Z,26.73
2018-12-17T10:38:50.259Z,33.10
2018-12-17T10:41:24.749Z,29.07
2018-12-17T10:44:05.534Z,23.73
2018-12-17T10:46:34.254Z,39.63
2018-12-17T10:49:10.922Z,29.57
2018-12-17T10:51:48.574Z,28.00
2018-12-17T10:54:21.582Z,32.00
2018-12-17T10:56:57.111Z,28.37
2018-12-17T10:59:37.671Z,32.90
2018-12-17T11:02:19.260Z,32.77
2018-12-17T11:04:57.923Z,33.00
2018-12-17T11:07:33.647Z,26.60
2018-12-17T11:10:15.262Z,28.17
2018-12-17T11:12:50.383Z,30.30
2018-12-17T11:15:26.503Z,31.77
2018-12-17T11:17:59.382Z,34.60
2018-12-17T11:20:35.382Z,39.03
2018-12-17T11:23:22.541Z,29.27
2018-12-17T11:25:56.825Z,28.20
2018-12-17T11:28:31.600Z,31.27
2018-12-17T11:31:04.627Z,28.77
2018-12-17T11:33:40.361Z,31.57
2018-12-17T11:36:15.021Z,30.07
2018-12-17T11:38:47.974Z,32.00
2018-12-17T11:44:35.130Z,31.53
2018-12-17T11:47:11.869Z,38.73
2018-12-17T11:49:44.037Z,32.07
2018-12-17T11:52:20.736Z,30.40
2018-12-17T12:00:59.781Z,32.83
2018-12-17T12:03:40.972Z,32.60
2018-12-17T12:06:20.934Z,31.13
2018-12-17T12:09:01.780Z,31.53
2018-12-17T12:11:32.187Z,34.17
2018-12-17T12:14:18.987Z,31.33
2018-12-17T12:16:59.661Z,35.90
2018-12-17T12:19:36.445Z,34.00
2018-12-17T12:22:11.444Z,29.50
2018-12-17T12:24:48.982Z,27.87
2018-12-17T12:27:39.031Z,35.80
2018-12-17T12:30:19.851Z,35.00
2018-12-17T12:33:05.297Z,37.93
2018-12-17T12:35:40.234Z,28.47
2018-12-17T12:38:27.345Z,28.80
2018-12-17T12:41:02.739Z,40.57
2018-12-17T12:43:37.883Z,31.30
2018-12-17T12:46:12.334Z,27.63
2018-12-17T12:48:48.267Z,30.70
2018-12-17T12:51:23.005Z,34.20
2018-12-17T12:53:57.818Z,34.07
2018-12-17T12:56:39.513Z,28.77
2018-12-17T12:59:15.194Z,27.37
2018-12-17T13:01:49.108Z,30.80
2018-12-17T13:04:21.767Z,32.80
2018-12-17T13:06:55.897Z,33.67
2018-12-17T13:09:32.058Z,33.67
2018-12-17T13:12:06.611Z,35.87
2018-12-17T13:14:39.037Z,31.77
2018-12-17T13:17:18.565Z,30.70
2018-12-17T13:19:53.566Z,28.00
2018-12-17T13:22:28.813Z,29.07
2018-12-17T13:25:05.289Z,31.20
2018-12-17T13:27:40.107Z,28.60
2018-12-17T13:30:14.982Z,35.53
2018-12-17T13:32:56.288Z,34.87
2018-12-17T13:35:30.610Z,34.47
2018-12-17T13:38:05.517Z,37.60
2018-12-17T13:40:39.730Z,36.10
2018-12-17T13:43:12.395Z,32.03
2018-12-17T13:45:51.464Z,38.13
2018-12-17T13:48:33.156Z,29.63
2018-12-17T13:51:13.089Z,40.87
2018-12-17T13:53:54.253Z,37.90
2018-12-17T13:56:32.962Z,32.30
2018-12-17T13:59:07.236Z,35.50
2018-12-17T14:01:40.063Z,40.80
2018-12-17T14:04:19.035Z,33.80
2018-12-17T14:06:53.814Z,37.30
2018-12-17T14:09:38.703Z,41.17
2018-12-17T14:12:13.920Z,35.10
2018-12-17T14:14:49.268Z,30.07
2018-12-17T14:17:33.718Z,32.30
2018-12-17T14:20:14.387Z,30.80
2018-12-17T14:22:43.264Z,38.10
2018-12-17T14:25:19.494Z,36.23
2018-12-17T14:27:54.990Z,36.03
2018-12-17T14:30:29.492Z,41.53
2018-12-17T14:33:10.474Z,42.73
2018-12-17T14:35:54.650Z,44.30
2018-12-17T14:38:29.487Z,38.33
2018-12-17T14:41:15.739Z,39.83
2018-12-17T14:44:00.950Z,39.57
2018-12-17T14:46:52.391Z,35.43
2018-12-17T14:49:28.050Z,34.93
2018-12-17T14:52:17.367Z,45.50
2018-12-17T14:54:56.628Z,37.97
2018-12-17T14:57:32.206Z,45.07
2018-12-17T15:00:10.038Z,38.17
2018-12-17T15:02:50.328Z,44.27
2018-12-17T15:05:23.428Z,5.67
2018-12-17T15:07:59.545Z,3.47
2018-12-17T15:10:50.309Z,0.80
2018-12-17T15:13:39.047Z,2.97
2018-12-17T15:16:25.681Z,28.70
2018-12-17T15:19:00.317Z,2.60
2018-12-17T15:21:41.586Z,0.73
2018-12-17T15:29:39.239Z,1.33
2018-12-17T15:32:18.060Z,1.63
2018-12-17T15:34:59.134Z,0.80
2018-12-17T15:37:40.522Z,0.60
2018-12-17T15:40:22.336Z,2.17
2018-12-17T15:42:54.834Z,0.60
2018-12-17T15:45:29.152Z,0.70
2018-12-17T15:48:06.470Z,2.13
2018-12-17T15:50:42.206Z,1.23
2018-12-17T15:53:16.986Z,4.30
2018-12-17T15:55:52.338Z,0.63
2018-12-17T15:58:29.115Z,0.87
2018-12-17T16:01:05.617Z,1.80
2018-12-17T16:03:41.026Z,1.07
2018-12-17T16:06:30.664Z,0.60
2018-12-17T16:09:08.806Z,1.00
2018-12-17T16:11:48.438Z,0.60
2018-12-17T16:14:23.635Z,30.87
2018-12-17T16:17:00.298Z,32.17
2018-12-17T16:19:36.030Z,31.53
2018-12-17T16:22:10.866Z,33.70
2018-12-17T16:24:53.068Z,34.60
2018-12-17T16:27:38.286Z,36.03
2018-12-17T16:33:14.520Z,39.83
2018-12-17T16:35:55.895Z,39.77
2018-12-17T16:38:30.374Z,29.97
2018-12-17T16:41:06.199Z,41.80
2018-12-17T16:43:35.333Z,30.70
2018-12-17T16:46:17.044Z,35.47
2018-12-17T16:48:52.946Z,33.60
2018-12-17T16:51:33.761Z,35.97
2018-12-17T16:54:15.501Z,49.60
2018-12-17T16:56:50.395Z,28.57
2018-12-17T16:59:27.163Z,39.23
2018-12-17T17:02:04.640Z,42.00
2018-12-17T17:04:32.792Z,35.80
2018-12-17T17:07:01.539Z,40.23
2018-12-17T17:09:35.893Z,44.33
2018-12-17T17:12:10.222Z,41.13
2018-12-17T17:14:42.438Z,46.77
2018-12-17T17:17:21.698Z,38.47
2018-12-17T17:19:56.622Z,42.03
2018-12-17T17:22:30.923Z,24.57
2018-12-17T17:25:01.388Z,32.27
2018-12-17T17:27:40.091Z,39.63
2018-12-17T17:30:21.026Z,34.60
2018-12-17T17:32:55.532Z,35.97
2018-12-17T17:38:26.013Z,38.50
2018-12-17T17:40:59.674Z,42.00
2018-12-17T17:43:34.626Z,46.10
2018-12-17T17:46:15.824Z,35.97
2018-12-17T17:48:50.359Z,41.23
2018-12-17T17:51:25.162Z,41.80
2018-12-17T17:54:03.325Z,43.93
2018-12-17T17:56:35.778Z,33.33
2018-12-17T17:59:05.691Z,30.50
2018-12-17T18:04:32.935Z,29.43
2018-12-17T18:10:10.808Z,32.90
2018-12-17T18:12:45.811Z,33.03
2018-12-17T18:18:35.956Z,31.23
2018-12-17T18:21:16.489Z,38.27
2018-12-17T18:23:57.365Z,28.83
2018-12-17T18:26:44.193Z,38.63
2018-12-17T18:29:18.702Z,34.70
2018-12-17T18:31:51.935Z,54.40
2018-12-17T18:34:26.376Z,43.60
2018-12-17T18:37:04.918Z,41.77
2018-12-17T18:39:43.365Z,53.40
2018-12-17T18:42:21.459Z,38.57
2018-12-17T18:44:58.944Z,57.47
2018-12-17T18:47:37.933Z,43.73
2018-12-17T18:50:10.307Z,50.20
2018-12-17T18:52:44.974Z,45.57
2018-12-17T18:55:21.071Z,54.13
2018-12-17T18:57:49.927Z,56.17
2018-12-17T19:00:18.695Z,42.70
2018-12-17T19:02:47.219Z,48.50
2018-12-17T19:05:36.246Z,44.93
2018-12-17T19:08:06.221Z,40.70
2018-12-17T19:13:43.443Z,36.53
2018-12-17T19:16:15.577Z,38.53
2018-12-17T19:18:51.576Z,36.20
2018-12-17T19:21:32.810Z,43.30
2018-12-17T19:24:17.668Z,38.33
2018-12-17T19:27:03.049Z,37.37
2018-12-17T19:29:40.451Z,41.33
2018-12-17T19:32:19.765Z,2.50
2018-12-17T19:34:54.151Z,2.30
2018-12-17T19:37:28.485Z,0.70
2018-12-17T19:40:03.528Z,0.83
2018-12-17T19:42:38.065Z,10.87
2018-12-17T19:45:13.062Z,3.23
2018-12-17T19:47:48.703Z,9.37
2018-12-17T19:50:23.889Z,1.57
2018-12-17T19:53:22.512Z,0.60
2018-12-17T19:55:59.053Z,1.80
2018-12-17T19:58:35.010Z,1.07
2018-12-17T20:01:09.701Z,1.13
2018-12-17T20:03:45.108Z,0.77
2018-12-17T20:06:26.583Z,0.60
2018-12-17T20:09:06.296Z,0.60
2018-12-17T20:11:53.324Z,0.60
2018-12-17T20:14:31.362Z,18.83
2018-12-17T20:17:07.627Z,0.70
2018-12-17T20:19:44.446Z,0.60
2018-12-17T20:22:18.488Z,0.60
2018-12-17T20:24:54.702Z,0.70
2018-12-17T20:27:30.989Z,0.60
2018-12-17T20:30:15.494Z,3.47
2018-12-17T20:32:56.617Z,17.67
2018-12-17T20:35:32.002Z,0.60
2018-12-17T20:38:07.984Z,0.60
2018-12-17T20:40:48.788Z,0.70
2018-12-17T20:43:25.136Z,0.60
2018-12-17T20:46:02.604Z,0.90
2018-12-17T20:48:38.178Z,0.83
2018-12-17T20:51:22.322Z,5.03
2018-12-17T20:53:59.049Z,32.93
2018-12-17T20:56:44.194Z,35.03
2018-12-17T20:59:26.170Z,37.30
2018-12-17T21:02:01.575Z,36.40
2018-12-17T21:04:46.044Z,36.97
2018-12-17T21:07:22.813Z,33.80
2018-12-17T21:10:08.502Z,44.70
2018-12-17T21:12:49.491Z,37.13
2018-12-17T21:15:26.925Z,37.33
2018-12-17T21:18:04.596Z,31.30
2018-12-17T21:20:49.732Z,34.50
2018-12-17T21:23:25.074Z,37.97
2018-12-17T21:26:12.003Z,49.07
2018-12-17T21:28:53.100Z,41.23
2018-12-17T21:31:28.616Z,33.47
2018-12-17T21:34:15.660Z,34.03
2018-12-17T21:36:54.794Z,29.13
2018-12-17T21:42:38.283Z,35.17
2018-12-17T21:48:27.615Z,39.80
2018-12-17T21:51:12.736Z,31.90
2018-12-17T21:53:49.475Z,34.07
2018-12-17T21:59:31.499Z,27.60
2018-12-17T22:02:09.964Z,26.07
2018-12-17T22:04:48.116Z,29.27
2018-12-17T22:07:26.247Z,36.07
2018-12-17T22:10:20.057Z,33.63
2018-12-17T22:12:55.122Z,28.10
2018-12-17T22:15:30.381Z,32.10
2018-12-17T22:18:07.179Z,37.17
2018-12-17T22:20:41.566Z,29.13
2018-12-17T22:23:20.465Z,27.13
2018-12-17T22:25:53.119Z,22.90
2018-12-17T22:28:27.732Z,27.57
2018-12-17T22:31:13.782Z,34.40
2018-12-17T22:33:54.883Z,33.30
2018-12-17T22:36:23.632Z,22.03
2018-12-17T22:38:59.642Z,29.47
2018-12-17T22:41:34.120Z,31.70
2018-12-17T22:44:07.976Z,25.83
2018-12-17T22:46:42.128Z,24.37
2018-12-17T22:49:20.114Z,31.20
2018-12-17T22:51:56.627Z,30.40
2018-12-17T22:54:38.377Z,32.80
2018-12-17T22:57:19.465Z,29.90
2018-12-17T22:59:55.409Z,29.20
2018-12-17T23:02:31.267Z,39.80
2018-12-17T23:05:13.866Z,35.27
2018-12-17T23:07:46.924Z,30.77
2018-12-17T23:10:33.079Z,35.07
2018-12-17T23:13:16.292Z,36.53
2018-12-17T23:15:56.644Z,34.27
2018-12-17T23:18:30.373Z,37.40
2018-12-17T23:21:10.728Z,39.00
2018-12-17T23:23:51.385Z,41.30
2018-12-17T23:26:29.927Z,27.60
2018-12-17T23:29:04.553Z,28.43
2018-12-17T23:31:36.449Z,28.97
2018-12-17T23:34:16.980Z,29.00
2018-12-17T23:36:49.608Z,32.80
2018-12-17T23:39:19.972Z,31.63
2018-12-17T23:44:44.388Z,29.97
2018-12-17T23:47:19.215Z,28.53
2018-12-17T23:49:49.758Z,29.07
2018-12-17T23:54:59.994Z,27.80
2018-12-17T23:57:33.946Z,31.27
